createdAt,value
2023-03-12T00:01:44.433Z,12.13
2023-03-12T00:19:03.073Z,12.21
2023-03-12T00:22:33.550Z,12.26
2023-03-12T00:25:05.579Z,12.26
2023-03-12T00:27:34.722Z,12.16
2023-03-12T00:30:05.216Z,12.39
2023-03-12T00:32:36.244Z,12.42
2023-03-12T00:35:05.788Z,12.41
2023-03-12T00:37:34.419Z,12.47
2023-03-12T00:40:06.084Z,12.53
2023-03-12T00:42:35.964Z,12.62
2023-03-12T00:45:04.513Z,12.72
2023-03-12T00:47:33.075Z,12.71
2023-03-12T00:50:01.665Z,12.92
2023-03-12T00:52:30.260Z,12.84
2023-03-12T00:54:59.225Z,12.91
2023-03-12T00:57:29.106Z,12.95
2023-03-12T00:59:57.648Z,12.89
2023-03-12T01:02:26.236Z,13.02
2023-03-12T01:04:55.869Z,13.01
2023-03-12T01:07:26.023Z,13.20
2023-03-12T01:09:54.919Z,13.30
2023-03-12T01:12:23.517Z,13.16
2023-03-12T01:14:52.000Z,13.12
2023-03-12T01:17:20.924Z,13.32
2023-03-12T01:19:49.444Z,13.69
2023-03-12T01:22:17.897Z,13.70
2023-03-12T01:24:46.323Z,13.43
2023-03-12T01:27:14.674Z,13.48
2023-03-12T01:29:43.550Z,13.79
2023-03-12T01:32:12.025Z,13.60
2023-03-12T01:34:40.524Z,13.90
2023-03-12T01:37:09.063Z,13.77
2023-03-12T01:39:37.516Z,13.61
2023-03-12T01:42:06.457Z,13.73
2023-03-12T01:45:22.928Z,13.37
2023-03-12T01:48:30.843Z,13.41
2023-03-12T01:50:59.813Z,13.61
2023-03-12T01:53:28.847Z,13.52
2023-03-12T01:55:57.914Z,13.47
2023-03-12T01:58:27.235Z,13.46
2023-03-12T02:00:55.844Z,13.24
2023-03-12T02:03:25.045Z,13.22
2023-03-12T02:06:02.624Z,13.14
2023-03-12T02:08:31.976Z,13.21
2023-03-12T02:11:01.419Z,13.04
2023-03-12T02:13:30.343Z,12.97
2023-03-12T02:16:01.206Z,12.98
2023-03-12T02:18:31.528Z,13.08
2023-03-12T02:21:01.662Z,12.81
2023-03-12T02:23:34.387Z,12.81
2023-03-12T02:26:03.848Z,12.76
2023-03-12T02:28:32.730Z,13.01
2023-03-12T02:31:03.055Z,13.09
2023-03-12T02:33:33.365Z,12.86
2023-03-12T02:36:01.803Z,12.91
2023-03-12T02:38:33.935Z,12.98
2023-03-12T02:41:04.163Z,13.16
2023-03-12T02:43:37.156Z,13.07
2023-03-12T02:49:52.527Z,13.02
2023-03-12T02:52:21.431Z,12.97
2023-03-12T02:54:55.508Z,13.08
2023-03-12T02:57:23.990Z,13.02
2023-03-12T02:59:52.577Z,12.63
2023-03-12T03:02:21.826Z,12.63
2023-03-12T03:04:50.383Z,12.55
2023-03-12T03:07:20.930Z,12.56
2023-03-12T03:10:22.154Z,12.41
2023-03-12T03:13:10.908Z,12.25
2023-03-12T03:16:17.624Z,12.66
2023-03-12T03:18:47.610Z,12.53
2023-03-12T03:21:17.244Z,12.54
2023-03-12T03:24:10.563Z,12.37
2023-03-12T03:26:42.690Z,12.81
2023-03-12T03:29:17.738Z,13.05
2023-03-12T03:32:12.596Z,12.65
2023-03-12T03:35:03.626Z,13.04
2023-03-12T03:37:34.693Z,13.30
2023-03-12T03:40:04.049Z,13.43
2023-03-12T03:42:36.469Z,13.02
2023-03-12T03:45:12.261Z,13.04
2023-03-12T03:47:42.894Z,13.18
2023-03-12T03:50:12.205Z,13.21
2023-03-12T03:52:41.203Z,13.33
2023-03-12T03:55:10.435Z,13.19
2023-03-12T03:57:40.572Z,13.20
2023-03-12T04:00:13.499Z,13.44
2023-03-12T04:02:46.275Z,13.36
2023-03-12T04:05:19.899Z,13.34
2023-03-12T04:07:49.706Z,13.56
2023-03-12T04:10:21.282Z,13.57
2023-03-12T04:12:51.589Z,13.35
2023-03-12T04:15:24.188Z,13.66
2023-03-12T04:17:53.231Z,13.69
2023-03-12T04:20:22.937Z,13.58
2023-03-12T04:22:51.796Z,13.78
2023-03-12T04:25:20.857Z,13.68
2023-03-12T04:27:49.798Z,13.63
2023-03-12T04:30:18.521Z,13.49
2023-03-12T04:32:47.221Z,13.73
2023-03-12T04:35:20.088Z,13.94
2023-03-12T04:37:48.974Z,14.02
2023-03-12T04:40:19.605Z,14.07
2023-03-12T04:42:48.366Z,14.01
2023-03-12T04:45:17.665Z,14.02
2023-03-12T04:47:49.816Z,14.18
2023-03-12T04:50:19.435Z,14.09
2023-03-12T04:52:48.267Z,13.99
2023-03-12T04:55:18.262Z,14.05
2023-03-12T04:57:47.175Z,14.20
2023-03-12T05:00:17.874Z,14.17
2023-03-12T05:02:47.644Z,14.14
2023-03-12T05:05:16.332Z,14.11
2023-03-12T05:08:04.927Z,14.17
2023-03-12T05:10:37.926Z,14.26
2023-03-12T05:13:15.213Z,14.41
2023-03-12T05:15:43.945Z,14.45
2023-03-12T05:18:13.099Z,14.38
2023-03-12T05:20:41.937Z,14.44
2023-03-12T05:23:11.683Z,14.49
2023-03-12T05:25:41.590Z,14.49
2023-03-12T05:28:10.236Z,14.50
2023-03-12T05:30:40.014Z,14.55
2023-03-12T05:33:09.413Z,14.50
2023-03-12T05:35:38.506Z,14.44
2023-03-12T05:38:10.564Z,14.44
2023-03-12T05:40:41.160Z,14.41
2023-03-12T05:43:09.761Z,14.45
2023-03-12T05:45:38.482Z,14.41
2023-03-12T05:48:07.127Z,14.43
2023-03-12T05:50:36.480Z,14.42
2023-03-12T05:53:05.501Z,14.46
2023-03-12T05:55:40.791Z,14.56
2023-03-12T05:58:09.864Z,14.38
2023-03-12T06:00:41.913Z,14.44
2023-03-12T06:03:11.444Z,14.28
2023-03-12T06:05:40.026Z,14.14
2023-03-12T06:08:09.267Z,14.13
2023-03-12T06:10:40.969Z,14.13
2023-03-12T06:13:09.527Z,14.06
2023-03-12T06:15:38.265Z,13.85
2023-03-12T06:18:07.609Z,13.68
2023-03-12T06:20:36.667Z,13.87
2023-03-12T06:23:05.470Z,13.68
2023-03-12T06:25:34.321Z,14.00
2023-03-12T06:28:04.109Z,13.84
2023-03-12T06:30:33.035Z,13.96
2023-03-12T06:33:01.612Z,13.85
2023-03-12T06:35:30.202Z,13.93
2023-03-12T06:37:59.355Z,13.84
2023-03-12T06:40:33.398Z,13.95
2023-03-12T06:43:01.993Z,14.06
2023-03-12T06:45:30.789Z,13.98
2023-03-12T06:47:59.935Z,13.89
2023-03-12T06:50:28.509Z,13.80
2023-03-12T06:53:00.456Z,13.51
2023-03-12T06:55:30.011Z,13.50
2023-03-12T06:57:58.611Z,13.83
2023-03-12T07:00:28.327Z,13.76
2023-03-12T07:02:57.429Z,13.55
2023-03-12T07:05:28.785Z,13.66
2023-03-12T07:07:58.430Z,13.88
2023-03-12T07:10:29.739Z,13.64
2023-03-12T07:12:58.811Z,13.80
2023-03-12T07:15:27.243Z,13.85
2023-03-12T07:17:56.034Z,13.79
2023-03-12T07:20:24.954Z,13.51
2023-03-12T07:22:53.491Z,13.46
2023-03-12T07:25:23.530Z,13.19
2023-03-12T07:27:52.979Z,13.08
2023-03-12T07:30:24.856Z,13.17
2023-03-12T07:32:54.022Z,12.98
2023-03-12T07:35:22.780Z,13.11
2023-03-12T07:37:51.548Z,13.21
2023-03-12T07:40:20.351Z,13.11
2023-03-12T07:42:50.509Z,13.08
2023-03-12T07:45:20.019Z,13.21
2023-03-12T07:47:48.965Z,13.42
2023-03-12T07:50:18.144Z,13.09
2023-03-12T07:52:48.104Z,12.87
2023-03-12T07:55:16.997Z,12.92
2023-03-12T07:57:45.674Z,13.07
2023-03-12T08:00:18.337Z,12.89
2023-03-12T08:02:48.490Z,12.96
2023-03-12T08:05:17.230Z,12.93
2023-03-12T08:07:45.759Z,13.22
2023-03-12T08:10:14.215Z,13.28
2023-03-12T08:12:50.226Z,13.00
2023-03-12T08:15:18.669Z,13.18
2023-03-12T08:17:47.772Z,13.40
2023-03-12T08:20:18.695Z,13.79
2023-03-12T08:22:48.544Z,13.58
2023-03-12T08:25:18.914Z,13.56
2023-03-12T08:27:47.969Z,13.87
2023-03-12T08:30:17.194Z,13.55
2023-03-12T08:32:49.463Z,14.05
2023-03-12T08:35:18.222Z,14.27
2023-03-12T08:37:46.650Z,14.28
2023-03-12T08:40:34.982Z,14.31
2023-03-12T08:43:04.338Z,14.20
2023-03-12T08:45:36.600Z,14.30
2023-03-12T08:48:05.768Z,14.72
2023-03-12T08:50:39.899Z,14.82
2023-03-12T08:53:08.602Z,14.81
2023-03-12T08:55:37.320Z,14.49
2023-03-12T08:58:05.895Z,14.60
2023-03-12T09:00:34.738Z,14.19
2023-03-12T09:03:03.399Z,14.21
2023-03-12T09:05:32.369Z,13.48
2023-03-12T09:08:03.709Z,13.49
2023-03-12T09:10:32.263Z,13.27
2023-03-12T09:13:01.322Z,13.41
2023-03-12T09:15:34.537Z,13.30
2023-03-12T09:18:04.511Z,13.02
2023-03-12T09:20:33.177Z,12.75
2023-03-12T09:23:01.898Z,12.74
2023-03-12T09:25:30.722Z,12.47
2023-03-12T09:27:59.721Z,12.39
2023-03-12T09:30:30.464Z,12.81
2023-03-12T09:32:59.439Z,12.59
2023-03-12T09:35:28.342Z,12.67
2023-03-12T09:37:57.061Z,12.65
2023-03-12T09:40:29.467Z,12.70
2023-03-12T09:43:04.200Z,12.33
2023-03-12T09:45:33.844Z,12.20
2023-03-12T09:48:04.200Z,12.37
2023-03-12T09:50:33.774Z,12.48
2023-03-12T09:53:12.537Z,12.60
2023-03-12T09:55:41.888Z,12.14
2023-03-12T09:58:18.854Z,12.29
2023-03-12T10:00:47.688Z,12.33
2023-03-12T10:03:49.160Z,11.82
2023-03-12T10:06:20.657Z,11.67
2023-03-12T10:09:01.673Z,11.84
2023-03-12T10:11:33.306Z,12.20
2023-03-12T10:14:02.578Z,12.33
2023-03-12T10:16:47.952Z,12.34
2023-03-12T10:19:22.398Z,12.12
2023-03-12T10:21:54.288Z,12.02
2023-03-12T10:24:29.201Z,11.49
2023-03-12T10:26:58.020Z,11.38
2023-03-12T10:29:33.160Z,11.33
2023-03-12T10:32:05.873Z,11.09
2023-03-12T10:34:38.242Z,10.98
2023-03-12T10:37:19.710Z,11.11
2023-03-12T10:39:48.240Z,10.96
2023-03-12T10:42:21.029Z,10.77
2023-03-12T10:44:51.982Z,10.82
2023-03-12T10:47:39.636Z,11.11
2023-03-12T10:50:12.938Z,11.30
2023-03-12T10:52:42.061Z,11.33
2023-03-12T10:55:20.984Z,11.53
2023-03-12T10:57:49.594Z,11.55
2023-03-12T11:00:23.806Z,10.97
2023-03-12T11:02:56.700Z,11.27
2023-03-12T11:05:26.151Z,10.98
2023-03-12T11:07:56.391Z,11.21
2023-03-12T11:10:25.967Z,11.30
2023-03-12T11:13:02.261Z,10.97
2023-03-12T11:15:36.424Z,11.05
2023-03-12T11:18:25.467Z,10.76
2023-03-12T11:20:58.840Z,10.62
2023-03-12T11:23:29.627Z,10.67
2023-03-12T11:26:10.970Z,10.74
2023-03-12T11:28:43.191Z,10.72
2023-03-12T11:31:17.498Z,10.67
2023-03-12T11:33:47.437Z,10.87
2023-03-12T11:36:18.307Z,10.77
2023-03-12T11:38:52.545Z,10.88
2023-03-12T11:41:23.854Z,10.95
2023-03-12T11:44:17.027Z,10.95
2023-03-12T11:46:49.326Z,10.88
2023-03-12T11:49:17.767Z,10.63
2023-03-12T11:51:49.841Z,10.86
2023-03-12T11:54:29.375Z,10.77
2023-03-12T11:57:02.611Z,10.87
2023-03-12T11:59:34.924Z,10.96
2023-03-12T12:02:15.674Z,11.00
2023-03-12T12:04:52.963Z,11.04
2023-03-12T12:07:24.440Z,10.98
2023-03-12T12:09:53.618Z,10.85
2023-03-12T12:12:36.733Z,10.82
2023-03-12T12:15:14.692Z,10.80
2023-03-12T12:18:02.230Z,10.79
2023-03-12T12:20:41.752Z,10.56
2023-03-12T12:23:15.506Z,10.42
2023-03-12T12:25:50.082Z,10.30
2023-03-12T12:28:24.917Z,9.92
2023-03-12T12:31:06.265Z,9.77
2023-03-12T12:33:40.597Z,9.84
2023-03-12T12:36:10.182Z,9.68
2023-03-12T12:38:42.758Z,9.76
2023-03-12T12:41:15.859Z,9.84
2023-03-12T12:43:47.782Z,9.66
2023-03-12T12:46:17.624Z,9.67
2023-03-12T12:48:49.560Z,9.63
2023-03-12T12:51:18.198Z,9.68
2023-03-12T12:53:52.160Z,9.61
2023-03-12T12:56:20.490Z,9.59
2023-03-12T12:58:48.875Z,9.66
2023-03-12T13:01:19.072Z,9.66
2023-03-12T13:03:50.400Z,9.53
2023-03-12T13:06:18.803Z,9.66
2023-03-12T13:08:47.591Z,9.72
2023-03-12T13:11:20.030Z,9.73
2023-03-12T13:14:04.893Z,9.64
2023-03-12T13:16:34.204Z,9.79
2023-03-12T13:19:09.200Z,9.77
2023-03-12T13:21:37.597Z,9.77
2023-03-12T13:24:24.599Z,9.82
2023-03-12T13:26:52.999Z,9.31
2023-03-12T13:29:21.295Z,9.46
2023-03-12T13:31:50.524Z,9.74
2023-03-12T13:34:19.496Z,9.95
2023-03-12T13:36:52.956Z,10.02
2023-03-12T13:39:34.516Z,9.86
2023-03-12T13:42:22.531Z,9.66
2023-03-12T13:44:51.655Z,9.62
2023-03-12T13:47:23.433Z,9.46
2023-03-12T13:49:58.950Z,9.51
2023-03-12T13:52:29.124Z,9.41
2023-03-12T13:54:58.953Z,9.13
2023-03-12T13:57:44.177Z,9.27
2023-03-12T14:00:29.612Z,9.44
2023-03-12T14:03:02.106Z,9.53
2023-03-12T14:05:31.900Z,9.62
2023-03-12T14:08:00.530Z,9.61
2023-03-12T14:10:48.076Z,9.64
2023-03-12T14:13:24.694Z,9.65
2023-03-12T14:16:02.690Z,9.60
2023-03-12T14:18:31.301Z,9.64
2023-03-12T14:21:00.187Z,9.66
2023-03-12T14:23:39.798Z,9.51
2023-03-12T14:26:09.890Z,9.17
2023-03-12T14:28:39.854Z,9.14
2023-03-12T14:31:10.095Z,9.29
2023-03-12T14:34:00.824Z,9.28
2023-03-12T14:36:30.040Z,9.33
2023-03-12T14:39:10.041Z,9.44
2023-03-12T14:41:40.149Z,9.44
2023-03-12T14:44:22.374Z,9.59
2023-03-12T14:47:00.898Z,9.56
2023-03-12T14:49:30.242Z,9.49
2023-03-12T14:51:59.346Z,9.29
2023-03-12T14:54:28.595Z,9.28
2023-03-12T14:56:59.274Z,9.15
2023-03-12T14:59:28.787Z,8.98
2023-03-12T15:01:59.237Z,9.01
2023-03-12T15:04:29.218Z,9.09
2023-03-12T15:06:59.137Z,9.09
2023-03-12T15:09:28.812Z,9.07
2023-03-12T15:12:00.223Z,8.85
2023-03-12T15:14:29.864Z,8.91
2023-03-12T15:17:03.920Z,8.95
2023-03-12T15:19:35.766Z,8.93
2023-03-12T15:22:04.693Z,8.92
2023-03-12T15:24:37.718Z,9.02
2023-03-12T15:27:24.994Z,8.98
2023-03-12T15:29:53.937Z,8.93
2023-03-12T15:32:25.154Z,8.82
2023-03-12T15:34:54.085Z,8.80
2023-03-12T15:37:29.922Z,8.90
2023-03-12T15:39:59.253Z,8.87
2023-03-12T15:42:27.904Z,8.77
2023-03-12T15:44:57.677Z,8.62
2023-03-12T15:47:29.344Z,8.61
2023-03-12T15:49:58.526Z,8.73
2023-03-12T15:52:31.303Z,8.79
2023-03-12T15:54:59.681Z,8.84
2023-03-12T15:57:28.160Z,8.87
2023-03-12T16:00:13.606Z,8.80
2023-03-12T16:02:53.029Z,8.73
2023-03-12T16:05:30.368Z,8.66
2023-03-12T16:08:01.389Z,8.66
2023-03-12T16:10:32.375Z,8.53
2023-03-12T16:13:02.508Z,8.42
2023-03-12T16:15:33.152Z,8.44
2023-03-12T16:18:03.612Z,8.39
2023-03-12T16:20:33.210Z,8.33
2023-03-12T16:23:02.523Z,8.31
2023-03-12T16:25:31.199Z,8.18
2023-03-12T16:28:01.091Z,8.18
2023-03-12T16:30:34.016Z,8.11
2023-03-12T16:33:03.850Z,7.93
2023-03-12T16:35:34.511Z,7.80
2023-03-12T16:38:03.661Z,7.75
2023-03-12T16:40:36.896Z,7.73
2023-03-12T16:43:07.082Z,7.58
2023-03-12T16:46:03.200Z,7.48
2023-03-12T16:48:41.550Z,7.33
2023-03-12T16:51:14.425Z,7.37
2023-03-12T16:53:43.709Z,7.32
2023-03-12T16:56:17.079Z,7.26
2023-03-12T16:59:07.537Z,7.22
2023-03-12T17:01:42.797Z,7.22
2023-03-12T17:04:13.243Z,7.09
2023-03-12T17:06:43.065Z,7.11
2023-03-12T17:09:14.896Z,7.15
2023-03-12T17:12:29.645Z,7.09
2023-03-12T17:15:02.445Z,6.94
2023-03-12T17:17:32.541Z,7.00
2023-03-12T17:20:01.179Z,7.03
2023-03-12T17:23:10.808Z,6.95
2023-03-12T17:25:40.456Z,6.80
2023-03-12T17:28:09.283Z,6.95
2023-03-12T17:30:38.751Z,6.93
2023-03-12T17:33:08.978Z,6.92
2023-03-12T17:35:37.516Z,6.81
2023-03-12T17:38:06.149Z,6.82
2023-03-12T17:40:35.929Z,6.69
2023-03-12T17:43:09.478Z,6.63
2023-03-12T17:45:38.324Z,6.64
2023-03-12T17:48:07.079Z,6.64
2023-03-12T17:50:36.899Z,6.64
2023-03-12T17:53:05.549Z,6.66
2023-03-12T17:55:35.140Z,6.72
2023-03-12T17:58:04.784Z,6.76
2023-03-12T18:00:39.471Z,6.75
2023-03-12T18:03:08.190Z,6.71
2023-03-12T18:05:38.988Z,6.72
2023-03-12T18:08:08.287Z,6.66
2023-03-12T18:10:41.107Z,6.65
2023-03-12T18:13:09.755Z,6.64
2023-03-12T18:15:41.765Z,6.60
2023-03-12T18:18:10.682Z,6.48
2023-03-12T18:20:40.111Z,6.40
2023-03-12T18:23:08.513Z,6.38
2023-03-12T18:25:37.330Z,6.40
2023-03-12T18:28:06.957Z,6.43
2023-03-12T18:30:36.245Z,6.45
2023-03-12T18:33:04.966Z,6.37
2023-03-12T18:35:33.787Z,6.35
2023-03-12T18:38:03.124Z,6.38
2023-03-12T18:40:33.344Z,6.37
2023-03-12T18:43:01.797Z,6.39
2023-03-12T18:45:30.920Z,6.41
2023-03-12T18:47:59.229Z,6.42
2023-03-12T18:50:28.830Z,6.39
2023-03-12T18:52:57.812Z,6.39
2023-03-12T18:55:26.808Z,6.44
2023-03-12T18:57:57.925Z,6.43
2023-03-12T19:00:26.661Z,6.35
2023-03-12T19:02:55.670Z,6.32
2023-03-12T19:05:26.698Z,6.28
2023-03-12T19:10:43.307Z,6.27
2023-03-12T19:13:11.946Z,6.23
2023-03-12T19:15:45.408Z,6.07
2023-03-12T19:18:14.693Z,6.23
2023-03-12T19:20:45.662Z,6.27
2023-03-12T19:23:16.716Z,6.32
2023-03-12T19:25:46.679Z,6.20
2023-03-12T19:28:19.369Z,6.09
2023-03-12T19:30:48.158Z,5.90
2023-03-12T19:33:20.983Z,5.86
2023-03-12T19:36:20.618Z,5.89
2023-03-12T19:38:50.812Z,6.02
2023-03-12T19:41:22.495Z,6.17
2023-03-12T19:43:53.196Z,6.11
2023-03-12T19:46:25.267Z,6.27
2023-03-12T19:48:54.710Z,6.36
2023-03-12T19:51:32.417Z,6.35
2023-03-12T19:54:01.419Z,6.34
2023-03-12T19:56:29.807Z,6.40
2023-03-12T19:59:01.907Z,6.39
2023-03-12T20:01:31.978Z,6.44
2023-03-12T20:04:01.278Z,6.32
2023-03-12T20:06:34.415Z,6.36
2023-03-12T20:09:04.715Z,6.27
2023-03-12T20:11:38.695Z,6.25
2023-03-12T20:14:10.501Z,6.20
2023-03-12T20:16:40.898Z,6.09
2023-03-12T20:19:11.212Z,6.00
2023-03-12T20:21:44.874Z,6.07
2023-03-12T20:24:15.901Z,5.96
2023-03-12T20:26:49.583Z,5.96
2023-03-12T20:29:18.297Z,5.95
2023-03-12T20:31:48.697Z,5.91
2023-03-12T20:34:22.508Z,5.86
2023-03-12T20:36:57.981Z,5.79
2023-03-12T20:39:26.637Z,5.75
2023-03-12T20:41:55.028Z,5.72
2023-03-12T20:44:27.210Z,5.71
2023-03-12T20:46:55.444Z,5.68
2023-03-12T20:49:23.869Z,5.64
2023-03-12T20:51:52.170Z,5.65
2023-03-12T20:54:24.367Z,5.57
2023-03-12T20:56:53.224Z,5.56
2023-03-12T20:59:21.581Z,5.55
2023-03-12T21:01:50.377Z,5.53
2023-03-12T21:04:18.853Z,5.45
2023-03-12T21:06:51.886Z,5.39
2023-03-12T21:09:21.722Z,5.45
2023-03-12T21:11:50.359Z,5.43
2023-03-12T21:14:27.507Z,5.45
2023-03-12T21:17:18.056Z,5.39
2023-03-12T21:19:48.162Z,5.40
2023-03-12T21:22:26.217Z,5.47
2023-03-12T21:24:54.836Z,5.60
2023-03-12T21:27:24.299Z,5.68
2023-03-12T21:29:53.410Z,5.75
2023-03-12T21:32:27.124Z,5.78
2023-03-12T21:34:56.528Z,5.83
2023-03-12T21:37:26.736Z,5.84
2023-03-12T21:40:21.925Z,5.87
2023-03-12T21:42:51.541Z,5.96
2023-03-12T21:45:23.002Z,5.99
2023-03-12T21:47:54.535Z,5.98
2023-03-12T21:50:32.168Z,5.96
2023-03-12T21:53:21.222Z,5.92
2023-03-12T21:55:59.962Z,5.86
2023-03-12T21:58:29.783Z,5.89
2023-03-12T22:01:11.177Z,5.90
2023-03-12T22:03:43.576Z,5.86
2023-03-12T22:06:13.495Z,5.85
2023-03-12T22:08:42.413Z,5.84
2023-03-12T22:11:11.962Z,5.83
2023-03-12T22:13:41.262Z,5.79
2023-03-12T22:16:12.691Z,5.85
2023-03-12T22:18:58.216Z,5.84
2023-03-12T22:21:47.569Z,5.87
2023-03-12T22:24:18.429Z,5.94
2023-03-12T22:26:48.441Z,5.95
2023-03-12T22:29:17.794Z,5.97
2023-03-12T22:31:48.963Z,5.91
2023-03-12T22:34:19.006Z,5.85
2023-03-12T22:36:54.379Z,5.74
2023-03-12T22:39:23.357Z,5.69
2023-03-12T22:41:52.846Z,5.71
2023-03-12T22:44:24.556Z,5.76
2023-03-12T22:47:13.623Z,5.73
2023-03-12T22:50:04.331Z,5.69
2023-03-12T22:52:54.591Z,5.66
2023-03-12T22:55:45.083Z,5.67
2023-03-12T22:58:36.899Z,5.67
2023-03-12T23:01:46.272Z,5.68
2023-03-12T23:04:54.907Z,5.69
